Mount Joy, Pennsylvania
Current Conditions -  °F | °C
As of 3:53 PM on Sunday 23 Nov 2014 (Local Time) from KLNS Reporting Station
Clear Clear  
Wind Chill: 10°   Ceiling: Unl
Heat Index: 10°   Visibility: 10mi
Dew Point: -4°   Wind: 6mph
Humidity: 36%   Direction: 130°SE
Pressure: 30.09"   Gusts: NA
Location:  40.11°N, 76.51°W
Report Text: KLNS 232053Z 13005KT 10SM CLR 10/M04 A3009 RMK AO2 SLP191 T01001044 56010
Loading
Personal Weather Stations






























Interactive Weather Map New forecast layout! Learn more

10-Day Weather Forecast

Advertisements
Track Severe Weather on mobile